SKLT/LET METAR and TAF weather

Enter ICAO airport designator
Station Type Date Time Source
SKLT METAR 2018/12/17 16:00 UTC NOAA

SKLT 171600Z 14004KT 9999 SCT015 BKN100 30/25 A2997


Station Type Date Time Source
SKLT Decoded METAR 2018/12/17 16:00 UTC NOAA

Leticia / Vasquez Cobo, Colombia (SKLT) 04-10S 069-57W 84M
Dec 17, 2018 - 11:00 AM EST / 2018.12.17 1600 UTC
Wind: from the SE (140 degrees) at 5 MPH (4 KT):0
Visibility: greater than 7 mile(s):0
Sky conditions: mostly cloudy
Temperature: 86 F (30 C)
Heat index: 96.8 F (36.0 C):1
Dew Point: 77 F (25 C)
Relative Humidity: 74%
Pressure (altimeter): 29.97 in. Hg (1014 hPa)
ob: SKLT 171600Z 14004KT 9999 SCT015 BKN100 30/25 A2997
cycle: 16

Station Type Date Time Source
SKLT TAF 2018/12/17 18:36 UTC NOAA

TAF SKLT 171700Z 1718/1818 14007KT 9999 SCT015 BKN090
BECMG 1723/1801 00000KT FEW017 SCT100 TX30/1718Z TN23/1811Z


Example: see airport list